CheckWX is a tool to help pilots better visualize weather data.  It is not intended as a substitute for an official pre-flight weather briefing.

17:24:27 UTC

EGPH TAF
Edinburgh Airport
Edinburgh, United Kingdom
TAF EGPH 071058Z 0712/0812 23012KT 9999 SCT009 BKN016 TEMPO 0712/0802 6000 RADZ BKN012 PROB40 TEMPO 0714/0719 4000 DZRA BKN009 PROB40 TEMPO 0715/0720 22018G30KT BECMG 0720/0723 22018G28KT PROB40 TEMPO 0720/0802 21022G38KT PROB30 TEMPO 0722/0802 3000 +RA BKN007 BECMG 0802/0804 26017KT PROB40 TEMPO 0802/0812 26020G30KT 7000 SHRA BKN014

Dec-7@
12:00 UTC

Dec-7 @ 12:00 UTC

Dec-7@
20:00 UTC

Dec-7 @ 20:00 UTC

TAF EGPH 071058Z 0712/0812 23012KT 9999 SCT009 BKN016
Wind
  • 230° at 12 KTS
Cloud Levels
  • Scattered at 900' AGL
  • Broken at 1,600' AGL

Dec-7@
12:00 UTC

Dec-7 @ 12:00 UTC

Dec-8@
02:00 UTC

Dec-8 @ 02:00 UTC

TEMPO 0712/0802 6000 RADZ BKN012

Temporary

Temporary Changes expected for less than half the time period

Conditions
Rain, Drizzle
Cloud Levels
  • Broken at 1,200' AGL

Dec-7@
14:00 UTC

Dec-7 @ 14:00 UTC

Dec-7@
19:00 UTC

Dec-7 @ 19:00 UTC

PROB40 TEMPO 0714/0719 4000 DZRA BKN009

Temporary - 40% Likelihood

Temporary - 40% Likelihood during this time.

Conditions
Drizzle, Rain
Cloud Levels
  • Broken at 900' AGL

Dec-7@
15:00 UTC

Dec-7 @ 15:00 UTC

Dec-7@
20:00 UTC

Dec-7 @ 20:00 UTC

PROB40 TEMPO 0715/0720 22018G30KT

Temporary - 40% Likelihood

Temporary - 40% Likelihood during this time.

Wind
  • 220° at 18 KTS
  • {Gusting to 30 KTS

Dec-7@
20:00 UTC

Dec-7 @ 20:00 UTC

Dec-8@
02:00 UTC

Dec-8 @ 02:00 UTC

BECMG 0720/0723 22018G28KT

Becoming

Becoming Conditions expected by Sat, Dec 7, 2019 @ 23:00 UTC

Wind
  • 220° at 18 KTS
  • {Gusting to 28 KTS
Cloud Levels
  • Scattered at 900' AGL
  • Broken at 1,600' AGL

Dec-7@
20:00 UTC

Dec-7 @ 20:00 UTC

Dec-8@
02:00 UTC

Dec-8 @ 02:00 UTC

PROB40 TEMPO 0720/0802 21022G38KT

Temporary - 40% Likelihood

Temporary - 40% Likelihood during this time.

Wind
  • 210° at 22 KTS
  • {Gusting to 38 KTS

Dec-7@
22:00 UTC

Dec-7 @ 22:00 UTC

Dec-8@
02:00 UTC

Dec-8 @ 02:00 UTC

PROB30 TEMPO 0722/0802 3000 +RA BKN007

Temporary - 30% Likelihood

Temporary - 30% Likelihood during this time.

Conditions
Heavy Rain
Cloud Levels
  • Broken at 700' AGL

Dec-8@
02:00 UTC

Dec-8 @ 02:00 UTC

Dec-8@
12:00 UTC

Dec-8 @ 12:00 UTC

BECMG 0802/0804 26017KT

Becoming

Becoming Conditions expected by Sun, Dec 8, 2019 @ 04:00 UTC

Wind
  • 260° at 17 KTS
Cloud Levels
  • Scattered at 900' AGL
  • Broken at 1,600' AGL

Dec-8@
02:00 UTC

Dec-8 @ 02:00 UTC

Dec-8@
12:00 UTC

Dec-8 @ 12:00 UTC

PROB40 TEMPO 0802/0812 26020G30KT 7000 SHRA BKN014

Temporary - 40% Likelihood

Temporary - 40% Likelihood during this time.

Wind
  • 260° at 20 KTS
  • {Gusting to 30 KTS
Conditions
Rain
Cloud Levels
  • Broken at 1,400' AGL